createdAt,value
2017-12-30T00:02:13.372Z,91.60
2017-12-30T00:04:39.670Z,91.10
2017-12-30T00:07:05.937Z,91.80
2017-12-30T00:09:32.204Z,91.80
2017-12-30T00:11:58.470Z,91.70
2017-12-30T00:14:25.323Z,92.00
2017-12-30T00:16:51.598Z,91.70
2017-12-30T00:19:18.213Z,92.20
2017-12-30T00:21:44.483Z,92.20
2017-12-30T00:24:10.733Z,92.90
2017-12-30T00:26:36.949Z,92.50
2017-12-30T00:29:03.202Z,91.70
2017-12-30T00:31:29.459Z,92.30
2017-12-30T00:33:55.716Z,92.20
2017-12-30T00:36:21.941Z,91.90
2017-12-30T00:38:48.201Z,91.20
2017-12-30T00:41:14.444Z,91.40
2017-12-30T00:43:40.836Z,91.30
2017-12-30T00:46:07.100Z,90.90
2017-12-30T00:48:34.313Z,90.40
2017-12-30T00:51:00.546Z,90.30
2017-12-30T00:53:26.832Z,90.30
2017-12-30T00:55:53.118Z,90.20
2017-12-30T00:58:19.361Z,89.60
2017-12-30T01:00:45.608Z,89.50
2017-12-30T01:03:11.859Z,89.60
2017-12-30T01:05:38.145Z,89.30
2017-12-30T01:08:04.403Z,89.00
2017-12-30T01:10:30.696Z,88.90
2017-12-30T01:12:57.483Z,89.40
2017-12-30T01:15:23.700Z,89.60
2017-12-30T01:17:50.034Z,89.70
2017-12-30T01:20:16.289Z,89.80
2017-12-30T01:22:42.550Z,89.70
2017-12-30T01:25:08.784Z,89.80
2017-12-30T01:27:35.036Z,90.00
2017-12-30T01:30:01.326Z,90.10
2017-12-30T01:32:27.578Z,90.00
2017-12-30T01:34:53.832Z,89.90
2017-12-30T01:37:20.083Z,89.90
2017-12-30T01:39:46.374Z,90.00
2017-12-30T01:42:12.615Z,89.40
2017-12-30T01:44:38.849Z,89.10
2017-12-30T01:47:05.132Z,88.80
2017-12-30T01:49:31.373Z,88.80
2017-12-30T01:51:57.622Z,88.70
2017-12-30T01:54:25.492Z,88.60
2017-12-30T01:56:51.726Z,88.80
2017-12-30T01:59:17.957Z,89.60
2017-12-30T02:01:44.227Z,89.10
2017-12-30T02:04:10.457Z,89.30
2017-12-30T02:06:36.705Z,89.20
2017-12-30T02:09:03.042Z,88.90
2017-12-30T02:11:29.321Z,88.70
2017-12-30T02:13:55.602Z,88.70
2017-12-30T02:16:21.872Z,88.30
2017-12-30T02:18:48.124Z,88.40
2017-12-30T02:21:14.774Z,88.50
2017-12-30T02:23:40.980Z,88.50
2017-12-30T02:26:07.244Z,88.60
2017-12-30T02:28:33.490Z,88.50
2017-12-30T02:30:59.740Z,88.60
2017-12-30T02:33:25.961Z,89.00
2017-12-30T02:35:52.773Z,88.90
2017-12-30T02:38:18.998Z,88.70
2017-12-30T02:40:45.259Z,89.10
2017-12-30T02:45:52.436Z,88.90
2017-12-30T02:48:18.710Z,88.60
2017-12-30T02:50:44.965Z,88.90
2017-12-30T02:53:12.214Z,88.90
2017-12-30T02:55:38.471Z,89.10
2017-12-30T02:58:04.717Z,89.20
2017-12-30T03:00:30.977Z,89.60
2017-12-30T03:02:57.236Z,89.30
2017-12-30T03:05:23.506Z,88.40
2017-12-30T03:07:49.781Z,88.10
2017-12-30T03:10:16.046Z,88.30
2017-12-30T03:12:42.301Z,88.10
2017-12-30T03:15:08.642Z,87.80
2017-12-30T03:17:34.859Z,87.70
2017-12-30T03:20:01.090Z,87.50
2017-12-30T03:22:27.363Z,87.50
2017-12-30T03:24:53.621Z,87.20
2017-12-30T03:27:19.835Z,87.50
2017-12-30T03:29:46.079Z,87.80
2017-12-30T03:32:12.615Z,87.80
2017-12-30T03:34:38.820Z,88.30
2017-12-30T03:37:05.078Z,88.20
2017-12-30T03:39:31.305Z,88.60
2017-12-30T03:41:57.590Z,88.60
2017-12-30T03:44:23.826Z,88.70
2017-12-30T03:46:50.040Z,88.60
2017-12-30T03:49:16.272Z,89.20
2017-12-30T03:51:42.542Z,89.40
2017-12-30T03:54:08.781Z,89.30
2017-12-30T03:56:35.000Z,89.20
2017-12-30T03:59:01.256Z,88.60
2017-12-30T04:01:27.527Z,88.30
2017-12-30T04:03:53.776Z,87.90
2017-12-30T04:06:20.044Z,87.90
2017-12-30T04:08:46.252Z,87.90
2017-12-30T04:11:12.494Z,88.00
2017-12-30T04:13:38.693Z,87.60
2017-12-30T04:16:04.977Z,86.70
2017-12-30T04:18:31.591Z,86.50
2017-12-30T04:20:57.830Z,86.50
2017-12-30T04:23:24.089Z,85.90
2017-12-30T04:25:50.332Z,85.50
2017-12-30T04:28:16.593Z,85.10
2017-12-30T04:30:42.829Z,84.90
2017-12-30T04:33:09.079Z,84.70
2017-12-30T04:35:35.659Z,85.20
2017-12-30T04:38:01.883Z,85.20
2017-12-30T04:40:28.579Z,85.50
2017-12-30T04:42:55.187Z,86.10
2017-12-30T04:45:21.423Z,86.10
2017-12-30T04:47:47.677Z,86.30
2017-12-30T04:50:14.296Z,85.90
2017-12-30T04:52:40.516Z,86.00
2017-12-30T04:55:06.764Z,86.20
2017-12-30T04:57:32.996Z,86.30
2017-12-30T04:59:59.609Z,86.70
2017-12-30T05:02:25.836Z,86.70
2017-12-30T05:04:52.075Z,86.80
2017-12-30T05:07:19.128Z,87.10
2017-12-30T05:09:45.762Z,87.30
2017-12-30T05:12:12.025Z,87.30
2017-12-30T05:14:38.273Z,87.30
2017-12-30T05:17:04.516Z,86.80
2017-12-30T05:19:30.756Z,86.30
2017-12-30T05:21:57.051Z,86.70
2017-12-30T05:24:23.270Z,86.10
2017-12-30T05:26:49.537Z,86.50
2017-12-30T05:29:16.133Z,86.00
2017-12-30T05:31:42.360Z,85.30
2017-12-30T05:34:08.615Z,84.60
2017-12-30T05:36:35.619Z,85.10
2017-12-30T05:39:01.883Z,85.60
2017-12-30T05:41:28.114Z,86.00
2017-12-30T05:43:54.354Z,86.40
2017-12-30T05:46:20.556Z,85.50
2017-12-30T05:48:46.781Z,85.50
2017-12-30T05:51:13.029Z,85.20
2017-12-30T05:53:39.281Z,85.80
2017-12-30T05:56:05.522Z,85.20
2017-12-30T05:58:31.752Z,85.10
2017-12-30T06:00:58.004Z,84.20
2017-12-30T06:03:24.595Z,84.30
2017-12-30T06:05:50.840Z,84.30
2017-12-30T06:08:17.072Z,84.50
2017-12-30T06:10:43.304Z,84.40
2017-12-30T06:13:09.554Z,84.40
2017-12-30T06:15:36.147Z,84.30
2017-12-30T06:18:02.405Z,84.30
2017-12-30T06:20:29.008Z,84.80
2017-12-30T06:22:59.354Z,84.80
2017-12-30T06:25:25.563Z,84.80
2017-12-30T06:27:51.800Z,85.10
2017-12-30T06:30:18.032Z,85.50
2017-12-30T06:32:44.301Z,85.60
2017-12-30T06:35:10.546Z,85.90
2017-12-30T06:37:36.785Z,86.50
2017-12-30T06:40:03.052Z,86.40
2017-12-30T06:42:29.326Z,86.90
2017-12-30T06:44:55.556Z,87.40
2017-12-30T06:47:21.823Z,87.50
2017-12-30T06:49:48.105Z,88.40
2017-12-30T06:52:14.365Z,89.20
2017-12-30T06:54:40.621Z,89.00
2017-12-30T06:57:06.879Z,88.90
2017-12-30T06:59:33.184Z,88.50
2017-12-30T07:01:59.439Z,87.80
2017-12-30T07:04:26.073Z,88.30
2017-12-30T07:06:52.690Z,88.10
2017-12-30T07:09:18.972Z,88.10
2017-12-30T07:11:45.194Z,88.50
2017-12-30T07:14:11.450Z,88.60
2017-12-30T07:16:37.709Z,88.50
2017-12-30T07:19:03.969Z,88.10
2017-12-30T07:21:30.266Z,88.10
2017-12-30T07:23:56.521Z,88.10
2017-12-30T07:26:22.760Z,87.60
2017-12-30T07:28:48.993Z,87.80
2017-12-30T07:31:15.224Z,89.00
2017-12-30T07:33:41.485Z,88.90
2017-12-30T07:36:07.745Z,88.20
2017-12-30T07:38:34.012Z,88.50
2017-12-30T07:41:00.235Z,88.20
2017-12-30T07:43:26.498Z,88.00
2017-12-30T07:45:52.737Z,87.40
2017-12-30T07:48:19.010Z,87.20
2017-12-30T07:50:45.247Z,87.40
2017-12-30T07:53:11.527Z,87.50
2017-12-30T07:55:37.757Z,87.90
2017-12-30T07:58:04.003Z,87.70
2017-12-30T08:00:30.655Z,87.80
2017-12-30T08:02:57.903Z,87.80
2017-12-30T08:05:24.159Z,87.40
2017-12-30T08:07:50.392Z,87.10
2017-12-30T08:10:16.653Z,87.20
2017-12-30T08:12:43.558Z,87.60
2017-12-30T08:15:09.819Z,87.70
2017-12-30T08:17:36.058Z,88.00
2017-12-30T08:20:02.288Z,87.10
2017-12-30T08:22:28.576Z,86.60
2017-12-30T08:24:55.278Z,87.00
2017-12-30T08:27:22.017Z,87.10
2017-12-30T08:29:48.650Z,86.10
2017-12-30T08:32:15.245Z,85.70
2017-12-30T08:34:41.476Z,85.70
2017-12-30T08:37:07.698Z,85.50
2017-12-30T08:39:33.961Z,85.50
2017-12-30T08:42:00.175Z,85.10
2017-12-30T08:44:27.400Z,85.80
2017-12-30T08:46:53.759Z,86.50
2017-12-30T08:49:20.004Z,86.00
2017-12-30T08:51:47.898Z,85.40
2017-12-30T08:54:14.141Z,85.40
2017-12-30T08:56:40.346Z,84.70
2017-12-30T08:59:06.967Z,84.60
2017-12-30T09:01:33.215Z,84.60
2017-12-30T09:03:59.833Z,84.30
2017-12-30T09:06:26.098Z,84.30
2017-12-30T09:08:53.169Z,84.70
2017-12-30T09:11:19.399Z,83.80
2017-12-30T09:13:45.621Z,83.40
2017-12-30T09:16:12.838Z,83.00
2017-12-30T09:18:39.059Z,82.40
2017-12-30T09:21:05.284Z,82.60
2017-12-30T09:23:31.914Z,83.20
2017-12-30T09:25:58.533Z,83.10
2017-12-30T09:28:24.768Z,83.10
2017-12-30T09:30:51.003Z,83.40
2017-12-30T09:33:17.308Z,82.80
2017-12-30T09:35:43.548Z,82.90
2017-12-30T09:38:09.777Z,82.60
2017-12-30T09:40:36.034Z,82.30
2017-12-30T09:43:03.571Z,81.70
2017-12-30T09:45:29.820Z,81.70
2017-12-30T09:47:56.043Z,81.60
2017-12-30T09:50:22.309Z,82.10
2017-12-30T09:52:48.519Z,82.60
2017-12-30T09:55:14.753Z,83.30
2017-12-30T09:57:40.998Z,82.90
2017-12-30T10:00:07.211Z,83.00
2017-12-30T10:02:33.451Z,82.40
2017-12-30T10:04:59.707Z,83.70
2017-12-30T10:07:25.921Z,83.60
2017-12-30T10:09:52.203Z,84.30
2017-12-30T10:12:19.796Z,85.30
2017-12-30T10:14:46.020Z,85.30
2017-12-30T10:17:12.270Z,85.20
2017-12-30T10:19:38.549Z,86.10
2017-12-30T10:22:06.144Z,86.80
2017-12-30T10:24:32.369Z,86.80
2017-12-30T10:26:58.603Z,86.40
2017-12-30T10:29:24.813Z,86.00
2017-12-30T10:31:51.040Z,86.00
2017-12-30T10:34:17.265Z,86.50
2017-12-30T10:36:43.527Z,86.50
2017-12-30T10:39:09.766Z,86.30
2017-12-30T10:41:36.081Z,86.70
2017-12-30T10:44:02.350Z,86.70
2017-12-30T10:46:29.064Z,86.90
2017-12-30T10:48:55.337Z,87.00
2017-12-30T10:51:21.579Z,86.90
2017-12-30T10:53:47.859Z,87.20
2017-12-30T10:56:14.066Z,87.90
2017-12-30T10:58:40.363Z,88.50
2017-12-30T11:01:06.637Z,87.90
2017-12-30T11:03:32.904Z,88.70
2017-12-30T11:05:59.163Z,88.70
2017-12-30T11:08:25.400Z,89.10
2017-12-30T11:10:51.681Z,88.80
2017-12-30T11:13:18.813Z,89.40
2017-12-30T11:15:45.099Z,89.80
2017-12-30T11:18:11.351Z,89.80
2017-12-30T11:20:37.675Z,89.90
2017-12-30T11:23:03.935Z,90.50
2017-12-30T11:25:30.184Z,90.70
2017-12-30T11:27:56.548Z,90.80
2017-12-30T11:30:22.804Z,91.10
2017-12-30T11:32:49.070Z,91.30
2017-12-30T11:35:16.254Z,91.60
2017-12-30T11:37:42.532Z,91.40
2017-12-30T11:40:08.831Z,92.20
2017-12-30T11:42:35.099Z,91.40
2017-12-30T11:45:01.365Z,91.70
2017-12-30T11:47:27.618Z,91.30
2017-12-30T11:49:53.901Z,91.20
2017-12-30T11:52:20.271Z,91.40
2017-12-30T11:54:46.564Z,91.40
2017-12-30T11:57:13.412Z,91.50
2017-12-30T11:59:43.018Z,91.70
2017-12-30T12:02:09.309Z,92.00
2017-12-30T12:04:35.709Z,91.70
2017-12-30T12:07:02.838Z,92.40
2017-12-30T12:09:29.168Z,92.90
2017-12-30T12:11:55.473Z,92.10
2017-12-30T12:14:22.163Z,92.70
2017-12-30T12:16:48.510Z,92.70
2017-12-30T12:19:14.792Z,92.30
2017-12-30T12:21:41.180Z,93.00
2017-12-30T12:24:07.476Z,93.00
2017-12-30T12:26:33.801Z,93.30
2017-12-30T12:29:00.055Z,93.60
2017-12-30T12:31:26.409Z,93.40
2017-12-30T12:33:54.678Z,93.70
2017-12-30T12:36:21.055Z,93.00
2017-12-30T12:38:55.607Z,93.40
2017-12-30T12:41:31.510Z,93.50
2017-12-30T12:43:58.145Z,92.40
2017-12-30T12:46:24.518Z,92.40
2017-12-30T12:48:50.771Z,93.00
2017-12-30T12:51:17.924Z,93.30
2017-12-30T12:53:44.193Z,93.10
2017-12-30T12:56:10.431Z,92.40
2017-12-30T12:58:36.742Z,92.20
2017-12-30T13:01:03.370Z,92.60
2017-12-30T13:03:30.206Z,92.60
2017-12-30T13:05:56.831Z,92.80
2017-12-30T13:08:23.120Z,93.30
2017-12-30T13:10:49.424Z,92.80
2017-12-30T13:13:15.684Z,92.30
2017-12-30T13:15:41.985Z,92.20
2017-12-30T13:18:08.612Z,92.60
2017-12-30T13:20:35.193Z,92.40
2017-12-30T13:23:01.467Z,92.30
2017-12-30T13:25:27.953Z,92.70
2017-12-30T13:27:54.243Z,93.40
2017-12-30T13:30:20.933Z,93.70
2017-12-30T13:32:47.253Z,93.70
2017-12-30T13:35:13.509Z,94.40
2017-12-30T13:37:39.775Z,95.10
2017-12-30T13:40:06.531Z,94.30
2017-12-30T13:42:32.798Z,94.30
2017-12-30T13:44:59.040Z,93.80
2017-12-30T13:47:25.287Z,93.90
2017-12-30T13:49:52.081Z,93.70
2017-12-30T13:52:19.250Z,93.40
2017-12-30T13:54:45.494Z,93.30
2017-12-30T13:57:11.789Z,93.20
2017-12-30T13:59:38.232Z,92.80
2017-12-30T14:02:04.535Z,92.30
2017-12-30T14:04:30.760Z,92.50
2017-12-30T14:06:57.088Z,92.50
2017-12-30T14:09:23.413Z,92.80
2017-12-30T14:11:49.652Z,92.30
2017-12-30T14:14:15.895Z,92.10
2017-12-30T14:16:42.161Z,92.00
2017-12-30T14:19:09.360Z,92.00
2017-12-30T14:21:35.680Z,92.60
2017-12-30T14:24:01.937Z,92.80
2017-12-30T14:26:28.155Z,93.30
2017-12-30T14:28:54.427Z,93.80
2017-12-30T14:31:20.675Z,93.20
2017-12-30T14:33:47.352Z,94.00
2017-12-30T14:36:13.610Z,94.00
2017-12-30T14:38:40.757Z,93.60
2017-12-30T14:41:06.998Z,93.40
2017-12-30T14:43:33.352Z,93.00
2017-12-30T14:45:59.585Z,93.30
2017-12-30T14:48:26.274Z,92.90
2017-12-30T14:50:52.609Z,92.90
2017-12-30T14:53:18.924Z,93.30
2017-12-30T14:55:45.207Z,93.60
2017-12-30T14:58:11.478Z,93.70
2017-12-30T15:00:37.839Z,93.90
2017-12-30T15:03:04.130Z,93.80
2017-12-30T15:05:30.395Z,94.20
2017-12-30T15:07:56.656Z,94.10
2017-12-30T15:10:22.954Z,94.10
2017-12-30T15:12:49.312Z,94.10
2017-12-30T15:15:15.588Z,94.00
2017-12-30T15:17:44.856Z,93.90
2017-12-30T15:20:11.181Z,93.80
2017-12-30T15:22:37.818Z,94.10
2017-12-30T15:25:04.516Z,93.40
2017-12-30T15:27:30.826Z,93.40
2017-12-30T15:29:57.100Z,93.50
2017-12-30T15:32:23.414Z,94.00
2017-12-30T15:34:49.743Z,94.40
2017-12-30T15:37:16.129Z,93.80
2017-12-30T15:39:42.460Z,93.90
2017-12-30T15:42:08.729Z,93.90
2017-12-30T15:44:35.004Z,93.20
2017-12-30T15:47:01.279Z,93.40
2017-12-30T15:49:27.543Z,93.60
2017-12-30T15:51:53.918Z,93.50
2017-12-30T15:54:20.560Z,93.80
2017-12-30T15:56:46.834Z,93.90
2017-12-30T15:59:13.093Z,93.50
2017-12-30T16:01:39.432Z,93.90
2017-12-30T16:04:05.705Z,93.30
2017-12-30T16:06:32.038Z,94.00
2017-12-30T16:08:58.353Z,93.90
2017-12-30T16:11:24.731Z,93.70
2017-12-30T16:13:51.387Z,93.30
2017-12-30T16:16:17.723Z,93.30
2017-12-30T16:18:44.146Z,93.80
2017-12-30T16:21:10.404Z,93.70
2017-12-30T16:23:36.682Z,94.00
2017-12-30T16:26:03.347Z,94.10
2017-12-30T16:28:29.675Z,94.10
2017-12-30T16:30:55.972Z,93.80
2017-12-30T16:33:22.303Z,93.80
2017-12-30T16:35:48.658Z,93.80
2017-12-30T16:38:15.356Z,94.00
2017-12-30T16:40:41.714Z,94.00
2017-12-30T16:43:07.985Z,94.10
2017-12-30T16:45:34.279Z,93.60
2017-12-30T16:48:00.626Z,93.60
2017-12-30T16:50:26.896Z,94.00
2017-12-30T16:52:53.151Z,94.20
2017-12-30T16:55:19.443Z,94.90
2017-12-30T16:57:45.719Z,94.30
2017-12-30T17:00:12.377Z,93.80
2017-12-30T17:02:38.642Z,93.80
2017-12-30T17:05:04.922Z,94.00
2017-12-30T17:07:31.208Z,93.60
2017-12-30T17:09:57.450Z,94.00
2017-12-30T17:12:23.735Z,94.30
2017-12-30T17:14:50.015Z,94.00
2017-12-30T17:17:16.258Z,93.40
2017-12-30T17:19:42.574Z,94.20
2017-12-30T17:22:08.899Z,94.40
2017-12-30T17:24:35.136Z,94.10
2017-12-30T17:27:01.445Z,94.10
2017-12-30T17:29:27.741Z,93.80
2017-12-30T17:31:54.088Z,94.00
2017-12-30T17:34:20.396Z,94.30
2017-12-30T17:36:47.686Z,94.50
2017-12-30T17:39:14.037Z,93.90
2017-12-30T17:41:40.276Z,94.30
2017-12-30T17:44:06.948Z,94.30
2017-12-30T17:46:33.318Z,94.30
2017-12-30T17:48:59.589Z,94.70
2017-12-30T17:51:26.311Z,93.80
2017-12-30T17:53:52.623Z,93.80
2017-12-30T17:56:18.973Z,94.30
2017-12-30T17:58:45.272Z,94.10
2017-12-30T18:01:11.570Z,94.10
2017-12-30T18:03:37.831Z,94.30
2017-12-30T18:06:04.093Z,94.00
2017-12-30T18:08:30.761Z,93.90
2017-12-30T18:10:57.028Z,93.90
2017-12-30T18:13:23.301Z,93.30
2017-12-30T18:15:49.955Z,94.10
2017-12-30T18:18:16.262Z,94.10
2017-12-30T18:20:42.613Z,94.20
2017-12-30T18:23:08.866Z,93.60
2017-12-30T18:25:35.157Z,93.80
2017-12-30T18:28:01.440Z,93.10
2017-12-30T18:30:27.717Z,93.70
2017-12-30T18:32:54.323Z,93.60
2017-12-30T18:35:20.624Z,93.60
2017-12-30T18:37:46.882Z,93.70
2017-12-30T18:40:13.142Z,93.60
2017-12-30T18:42:39.811Z,94.10
2017-12-30T18:45:06.096Z,94.10
2017-12-30T18:47:32.372Z,94.00
2017-12-30T18:49:58.845Z,94.00
2017-12-30T18:52:25.115Z,93.50
2017-12-30T18:54:51.344Z,93.20
2017-12-30T18:57:17.626Z,93.50
2017-12-30T18:59:43.883Z,93.40
2017-12-30T19:02:10.534Z,93.80
2017-12-30T19:04:36.870Z,93.80
2017-12-30T19:07:03.146Z,93.30
2017-12-30T19:09:29.477Z,93.00
2017-12-30T19:11:55.798Z,93.60
2017-12-30T19:14:22.153Z,93.90
2017-12-30T19:16:48.478Z,93.50
2017-12-30T19:19:14.770Z,93.40
2017-12-30T19:21:41.152Z,93.40
2017-12-30T19:24:07.795Z,93.20
2017-12-30T19:26:34.443Z,93.10
2017-12-30T19:29:01.115Z,93.50
2017-12-30T19:31:27.425Z,93.50
2017-12-30T19:33:53.730Z,93.50
2017-12-30T19:36:20.041Z,93.50
2017-12-30T19:38:46.364Z,93.70
2017-12-30T19:41:12.651Z,93.70
2017-12-30T19:43:38.941Z,93.70
2017-12-30T19:46:05.303Z,94.30
2017-12-30T19:48:31.633Z,94.40
2017-12-30T19:50:57.912Z,94.40
2017-12-30T19:53:24.216Z,93.90
2017-12-30T19:55:50.630Z,94.20
2017-12-30T19:58:16.902Z,94.10
2017-12-30T20:00:43.239Z,94.10
2017-12-30T20:03:09.506Z,93.90
2017-12-30T20:05:35.844Z,93.70
2017-12-30T20:08:02.107Z,93.70
2017-12-30T20:10:28.411Z,93.20
2017-12-30T20:12:54.766Z,93.50
2017-12-30T20:15:21.061Z,94.10
2017-12-30T20:17:47.352Z,94.40
2017-12-30T20:20:13.698Z,93.90
2017-12-30T20:22:40.064Z,93.70
2017-12-30T20:25:06.371Z,94.40
2017-12-30T20:27:33.051Z,94.10
2017-12-30T20:29:59.384Z,94.10
2017-12-30T20:32:25.693Z,93.90
2017-12-30T20:34:51.986Z,94.40
2017-12-30T20:37:18.664Z,94.50
2017-12-30T20:39:44.975Z,94.50
2017-12-30T20:42:11.652Z,94.00
2017-12-30T20:44:37.968Z,94.00
2017-12-30T20:47:04.281Z,94.80
2017-12-30T20:49:30.591Z,94.70
2017-12-30T20:51:57.227Z,95.50
2017-12-30T20:54:24.005Z,95.50
2017-12-30T20:56:50.300Z,95.50
2017-12-30T20:59:16.953Z,95.40
2017-12-30T21:01:43.253Z,95.40
2017-12-30T21:04:09.584Z,94.70
2017-12-30T21:06:35.888Z,94.80
2017-12-30T21:09:02.255Z,95.10
2017-12-30T21:11:28.957Z,95.50
2017-12-30T21:13:55.299Z,95.50
2017-12-30T21:16:21.602Z,95.80
2017-12-30T21:18:47.911Z,95.50
2017-12-30T21:21:14.186Z,95.20
2017-12-30T21:23:40.463Z,94.50
2017-12-30T21:26:06.731Z,94.80
2017-12-30T21:28:33.006Z,95.10
2017-12-30T21:30:59.310Z,95.30
2017-12-30T21:33:25.650Z,95.20
2017-12-30T21:35:51.979Z,95.00
2017-12-30T21:38:19.060Z,95.00
2017-12-30T21:40:45.333Z,94.60
2017-12-30T21:43:11.751Z,95.00
2017-12-30T21:45:38.075Z,94.80
2017-12-30T21:48:04.393Z,94.60
2017-12-30T21:50:31.668Z,94.20
2017-12-30T21:52:57.950Z,94.40
2017-12-30T21:55:24.267Z,94.20
2017-12-30T21:57:50.953Z,94.10
2017-12-30T22:00:17.212Z,94.10
2017-12-30T22:02:43.582Z,95.00
2017-12-30T22:05:10.549Z,95.50
2017-12-30T22:07:36.812Z,95.50
2017-12-30T22:10:03.147Z,95.80
2017-12-30T22:12:29.418Z,95.90
2017-12-30T22:14:55.728Z,95.80
2017-12-30T22:17:22.433Z,95.50
2017-12-30T22:19:50.173Z,95.50
2017-12-30T22:22:16.553Z,95.20
2017-12-30T22:24:42.900Z,95.40
2017-12-30T22:27:09.573Z,94.70
2017-12-30T22:29:35.885Z,94.70
2017-12-30T22:32:03.149Z,94.70
2017-12-30T22:34:29.481Z,94.70
2017-12-30T22:36:56.539Z,94.50
2017-12-30T22:39:22.786Z,94.20
2017-12-30T22:41:49.079Z,94.10
2017-12-30T22:44:15.420Z,93.70
2017-12-30T22:46:42.657Z,93.60
2017-12-30T22:49:08.953Z,93.20
2017-12-30T22:51:35.253Z,93.30
2017-12-30T22:54:01.567Z,93.20
2017-12-30T22:56:27.888Z,92.90
2017-12-30T22:58:54.147Z,93.10
2017-12-30T23:01:20.499Z,93.30
2017-12-30T23:03:46.755Z,92.90
2017-12-30T23:06:13.042Z,92.90
2017-12-30T23:08:39.291Z,92.60
2017-12-30T23:11:05.581Z,92.60
2017-12-30T23:13:31.885Z,92.80
2017-12-30T23:15:58.260Z,92.60
2017-12-30T23:18:24.521Z,92.50
2017-12-30T23:20:50.800Z,92.30
2017-12-30T23:23:17.138Z,91.80
2017-12-30T23:25:43.432Z,91.70
2017-12-30T23:28:09.725Z,92.10
2017-12-30T23:30:36.040Z,92.00
2017-12-30T23:33:02.364Z,92.20
2017-12-30T23:35:28.721Z,92.00
2017-12-30T23:37:54.966Z,91.90
2017-12-30T23:40:21.229Z,91.60
2017-12-30T23:42:47.530Z,91.30
2017-12-30T23:45:13.883Z,91.60
2017-12-30T23:47:40.101Z,91.30
2017-12-30T23:50:06.381Z,91.20
2017-12-30T23:52:32.637Z,90.50
2017-12-30T23:54:58.901Z,90.70
2017-12-30T23:57:25.160Z,90.70
2017-12-30T23:59:51.409Z,91.00
